Time;durP1;ratioP1;P1;durP2;ratioP2;P2;SDS_P1;SDS_P2;PMS_P1;PMS_P2;Temp;Humidity;BMP_temperature;BMP_pressure;BME280_temperature;BME280_humidity;BME280_pressure;Samples;Min_cycle;Max_cycle;Signal;HPM_P1;HPM_P2
2023/01/29 00:01:20;;;;;;;35.40;11.30;;;;;;;;;;5094585;28;20344;-83
2023/01/29 00:03:49;;;;;;;27.47;10.40;;;;;;;;;;5092617;28;20730;-83
2023/01/29 00:06:14;;;;;;;37.47;11.63;;;;;;;;;;5093446;28;20020;-83
2023/01/29 00:08:39;;;;;;;28.87;11.40;;;;;;;;;;5086944;28;20324;-83
2023/01/29 00:11:05;;;;;;;32.77;11.50;;;;;;;;;;5094311;28;20016;-84
2023/01/29 00:13:31;;;;;;;35.10;10.40;;;;;;;;;;5092630;28;20027;-83
2023/01/29 00:15:57;;;;;;;24.70;9.10;;;;;;;;;;5094507;28;20475;-83
2023/01/29 00:18:22;;;;;;;25.60;10.57;;;;;;;;;;5094584;28;20020;-83
2023/01/29 00:20:48;;;;;;;30.37;10.30;;;;;;;;;;5089631;28;20532;-83
2023/01/29 00:23:14;;;;;;;24.73;8.77;;;;;;;;;;5092726;28;20417;-83
2023/01/29 00:25:39;;;;;;;25.60;9.50;;;;;;;;;;5092777;28;20419;-83
2023/01/29 00:28:04;;;;;;;21.43;8.40;;;;;;;;;;5094039;28;20024;-83
2023/01/29 00:30:30;;;;;;;29.33;11.40;;;;;;;;;;5092340;28;20107;-83
2023/01/29 00:32:56;;;;;;;32.33;11.07;;;;;;;;;;5089656;28;20036;-83
2023/01/29 00:35:21;;;;;;;24.20;8.57;;;;;;;;;;5092542;28;20030;-83
2023/01/29 00:37:46;;;;;;;24.97;8.80;;;;;;;;;;5092200;28;20020;-83
2023/01/29 00:40:12;;;;;;;30.70;9.97;;;;;;;;;;5093414;28;20027;-83
2023/01/29 00:45:20;;;;;;;20.17;7.53;;;;;;;;;;5082722;28;20028;-83
2023/01/29 00:47:46;;;;;;;26.37;8.50;;;;;;;;;;5089437;28;20011;-83
2023/01/29 00:50:11;;;;;;;25.07;8.80;;;;;;;;;;5092318;28;20020;-83
2023/01/29 00:52:37;;;;;;;23.53;7.90;;;;;;;;;;5093522;28;20478;-83
2023/01/29 00:55:03;;;;;;;25.10;8.60;;;;;;;;;;5092303;28;20054;-83
2023/01/29 00:57:29;;;;;;;20.80;7.57;;;;;;;;;;5079803;28;20055;-84
2023/01/29 00:59:54;;;;;;;22.80;8.63;;;;;;;;;;5090892;28;20368;-83
2023/01/29 01:05:06;;;;;;;22.70;8.23;;;;;;;;;;5093222;28;20143;-83
2023/01/29 01:07:32;;;;;;;22.33;8.20;;;;;;;;;;5092125;28;20047;-83
2023/01/29 01:12:41;;;;;;;25.97;7.90;;;;;;;;;;5093653;28;20027;-83
2023/01/29 01:15:06;;;;;;;20.90;8.57;;;;;;;;;;5093054;28;20051;-83
2023/01/29 01:17:32;;;;;;;22.17;8.43;;;;;;;;;;5091903;28;20107;-83
2023/01/29 01:19:57;;;;;;;17.97;7.43;;;;;;;;;;5088190;28;20073;-83
2023/01/29 01:22:22;;;;;;;17.40;6.90;;;;;;;;;;5082151;28;20031;-83
2023/01/29 01:24:47;;;;;;;19.27;7.20;;;;;;;;;;5092742;28;20065;-83
2023/01/29 01:27:13;;;;;;;21.87;9.10;;;;;;;;;;5086498;28;20012;-84
2023/01/29 01:29:38;;;;;;;22.93;8.37;;;;;;;;;;5091401;28;20028;-83
2023/01/29 01:32:04;;;;;;;20.03;8.17;;;;;;;;;;5088931;28;20102;-83
2023/01/29 01:34:29;;;;;;;22.20;8.47;;;;;;;;;;5083579;28;20452;-83
2023/01/29 01:36:55;;;;;;;23.37;8.20;;;;;;;;;;5091468;28;20115;-83
2023/01/29 01:39:20;;;;;;;21.27;7.53;;;;;;;;;;5091114;28;20031;-80
2023/01/29 01:41:45;;;;;;;21.43;7.80;;;;;;;;;;5092457;28;20068;-80
2023/01/29 01:44:29;;;;;;;26.00;7.93;;;;;;;;;;5087782;28;20012;-80
2023/01/29 01:46:55;;;;;;;26.63;10.20;;;;;;;;;;5086799;28;20012;-80
2023/01/29 01:49:20;;;;;;;22.20;8.20;;;;;;;;;;5092404;28;20391;-80
2023/01/29 01:51:47;;;;;;;26.70;9.37;;;;;;;;;;5091173;28;20069;-80
2023/01/29 01:54:15;;;;;;;21.37;8.40;;;;;;;;;;5090974;28;20012;-80
2023/01/29 01:56:43;;;;;;;19.47;8.30;;;;;;;;;;5087035;28;20024;-80
2023/01/29 01:59:10;;;;;;;20.97;9.07;;;;;;;;;;5089210;28;20036;-80
2023/01/29 02:01:39;;;;;;;18.53;7.83;;;;;;;;;;5090687;28;20473;-80
2023/01/29 02:09:39;;;;;;;31.13;9.50;;;;;;;;;;5088164;28;20039;-80
2023/01/29 02:12:06;;;;;;;27.07;9.03;;;;;;;;;;5092332;28;20073;-80
2023/01/29 02:14:33;;;;;;;21.63;7.97;;;;;;;;;;5091979;28;20020;-80
2023/01/29 02:17:01;;;;;;;27.63;8.73;;;;;;;;;;5090775;28;20020;-80
2023/01/29 02:19:26;;;;;;;29.70;10.17;;;;;;;;;;5091468;28;20028;-80
2023/01/29 02:22:10;;;;;;;26.33;9.10;;;;;;;;;;5082468;28;20042;-80
2023/01/29 02:24:35;;;;;;;23.40;8.67;;;;;;;;;;5086482;28;20020;-80
2023/01/29 02:27:07;;;;;;;25.83;8.60;;;;;;;;;;5090867;28;20012;-80
2023/01/29 02:29:33;;;;;;;24.13;8.77;;;;;;;;;;5091759;28;20020;-80
2023/01/29 02:32:01;;;;;;;25.17;9.07;;;;;;;;;;5091883;28;20016;-80
2023/01/29 02:34:29;;;;;;;26.83;9.70;;;;;;;;;;5077196;28;20021;-80
2023/01/29 02:36:54;;;;;;;27.83;9.73;;;;;;;;;;5076349;28;20020;-80
2023/01/29 02:39:35;;;;;;;25.47;8.83;;;;;;;;;;5089940;28;20578;-80
2023/01/29 02:42:01;;;;;;;33.83;11.27;;;;;;;;;;5090382;28;20111;-80
2023/01/29 02:44:36;;;;;;;21.53;8.47;;;;;;;;;;5085240;28;20044;-80
2023/01/29 02:47:04;;;;;;;26.60;9.33;;;;;;;;;;5089336;28;20017;-80
2023/01/29 02:49:39;;;;;;;26.13;10.20;;;;;;;;;;5089994;28;20050;-80
2023/01/29 02:52:24;;;;;;;23.93;10.27;;;;;;;;;;5081418;28;20122;-80
2023/01/29 02:55:16;;;;;;;27.50;9.17;;;;;;;;;;5084837;28;20060;-80
2023/01/29 02:57:43;;;;;;;22.65;8.52;;;;;;;;;;5078830;28;20519;-80
2023/01/29 03:00:12;;;;;;;25.30;9.43;;;;;;;;;;5085624;28;20111;-80
2023/01/29 03:02:56;;;;;;;23.20;9.00;;;;;;;;;;5092624;28;20061;-80
2023/01/29 03:05:26;;;;;;;27.20;10.00;;;;;;;;;;5094092;28;20048;-80
2023/01/29 03:07:54;;;;;;;29.03;10.10;;;;;;;;;;5094620;28;20019;-80
2023/01/29 03:10:39;;;;;;;24.57;9.33;;;;;;;;;;5079904;28;20452;-80
2023/01/29 03:13:12;;;;;;;23.80;9.17;;;;;;;;;;5095799;28;20379;-80
2023/01/29 03:15:45;;;;;;;24.93;9.87;;;;;;;;;;5094079;28;20016;-80
2023/01/29 03:18:13;;;;;;;26.87;9.37;;;;;;;;;;5094318;28;20492;-80
2023/01/29 03:20:46;;;;;;;23.67;8.87;;;;;;;;;;5091133;28;20447;-80
2023/01/29 03:23:15;;;;;;;24.33;9.17;;;;;;;;;;5088110;28;20024;-80
2023/01/29 03:33:58;;;;;;;34.03;9.33;;;;;;;;;;5091418;28;20149;-80
2023/01/29 03:36:38;;;;;;;30.67;10.53;;;;;;;;;;5093861;28;20074;-80
2023/01/29 03:39:04;;;;;;;25.20;9.57;;;;;;;;;;5093807;28;20019;-80
2023/01/29 03:41:47;;;;;;;24.97;9.10;;;;;;;;;;5095137;28;20028;-80
2023/01/29 03:44:27;;;;;;;26.50;9.10;;;;;;;;;;5091948;28;20383;-80
2023/01/29 03:46:59;;;;;;;26.00;8.77;;;;;;;;;;5091825;28;20020;-80
2023/01/29 03:49:27;;;;;;;23.30;9.40;;;;;;;;;;5094970;28;20016;-80
2023/01/29 03:52:07;;;;;;;29.67;10.27;;;;;;;;;;5093319;28;20389;-80
2023/01/29 03:54:39;;;;;;;22.87;8.90;;;;;;;;;;5094812;28;20015;-80
2023/01/29 03:57:18;;;;;;;24.83;9.38;;;;;;;;;;5089137;28;20491;-80
2023/01/29 03:59:46;;;;;;;19.50;8.30;;;;;;;;;;5093475;28;20104;-80
2023/01/29 04:02:14;;;;;;;31.13;10.13;;;;;;;;;;5094840;28;20012;-80
2023/01/29 04:04:42;;;;;;;32.13;10.40;;;;;;;;;;5093194;28;20038;-80
2023/01/29 04:07:16;;;;;;;23.67;8.73;;;;;;;;;;5092838;28;20409;-80
2023/01/29 04:09:47;;;;;;;20.90;8.90;;;;;;;;;;5089538;28;20027;-80
2023/01/29 04:12:14;;;;;;;24.00;8.70;;;;;;;;;;5093584;28;20024;-80
2023/01/29 04:14:39;;;;;;;20.20;8.17;;;;;;;;;;5094361;28;20024;-80
2023/01/29 04:17:16;;;;;;;25.40;8.80;;;;;;;;;;5092815;28;20038;-80
2023/01/29 04:19:42;;;;;;;28.60;10.00;;;;;;;;;;5092267;28;20031;-80
2023/01/29 04:22:23;;;;;;;23.53;9.10;;;;;;;;;;5086702;28;20028;-80
2023/01/29 04:24:48;;;;;;;21.50;8.37;;;;;;;;;;5093935;28;20070;-80
2023/01/29 04:27:14;;;;;;;22.53;8.37;;;;;;;;;;5094588;28;20420;-80
2023/01/29 04:29:44;;;;;;;22.43;8.47;;;;;;;;;;5092362;28;20324;-80
2023/01/29 04:32:16;;;;;;;23.87;9.73;;;;;;;;;;5091179;28;20439;-80
2023/01/29 04:34:47;;;;;;;35.63;10.27;;;;;;;;;;5088368;28;20146;-80
2023/01/29 04:37:18;;;;;;;25.33;8.73;;;;;;;;;;5092866;28;20257;-80
2023/01/29 04:39:48;;;;;;;24.93;8.57;;;;;;;;;;5092265;28;20022;-80
2023/01/29 04:42:17;;;;;;;20.03;8.23;;;;;;;;;;5085565;28;20020;-80
2023/01/29 04:44:49;;;;;;;21.87;9.67;;;;;;;;;;5085159;28;20017;-80
2023/01/29 04:47:14;;;;;;;33.10;8.93;;;;;;;;;;5093989;28;20016;-80
2023/01/29 04:49:44;;;;;;;26.93;9.87;;;;;;;;;;5093701;28;20430;-80
2023/01/29 04:52:29;;;;;;;27.77;10.87;;;;;;;;;;5083713;28;20451;-80
2023/01/29 04:55:00;;;;;;;30.67;11.00;;;;;;;;;;5092957;28;20201;-80
2023/01/29 04:57:25;;;;;;;34.20;10.93;;;;;;;;;;5093854;28;20024;-80
2023/01/29 05:00:12;;;;;;;33.63;10.67;;;;;;;;;;5092136;28;20031;-80
2023/01/29 05:02:38;;;;;;;31.97;11.53;;;;;;;;;;5089702;28;20119;-80
2023/01/29 05:05:05;;;;;;;27.77;9.70;;;;;;;;;;5085949;28;20107;-80
2023/01/29 05:07:31;;;;;;;24.53;8.87;;;;;;;;;;5092151;28;20521;-80
2023/01/29 05:09:57;;;;;;;21.93;8.70;;;;;;;;;;5091917;28;20039;-80
2023/01/29 05:12:24;;;;;;;29.33;10.03;;;;;;;;;;5092003;28;20482;-80
2023/01/29 05:14:50;;;;;;;25.13;8.30;;;;;;;;;;5085591;28;20031;-80
2023/01/29 05:17:17;;;;;;;23.07;7.80;;;;;;;;;;5087829;28;20042;-80
2023/01/29 05:19:42;;;;;;;25.33;9.20;;;;;;;;;;5091086;28;20028;-80
2023/01/29 05:22:09;;;;;;;26.87;9.27;;;;;;;;;;5091780;28;20391;-80
2023/01/29 05:24:36;;;;;;;23.80;7.77;;;;;;;;;;5090915;28;20229;-79
2023/01/29 05:29:45;;;;;;;27.43;9.23;;;;;;;;;;5090175;28;20327;-80
2023/01/29 05:32:11;;;;;;;26.83;9.77;;;;;;;;;;5093075;28;20024;-80
2023/01/29 05:34:36;;;;;;;23.77;8.03;;;;;;;;;;5092275;28;20473;-80
2023/01/29 05:37:02;;;;;;;24.20;8.43;;;;;;;;;;5091769;28;20019;-79
2023/01/29 05:39:27;;;;;;;28.13;8.37;;;;;;;;;;5082961;28;20028;-80
2023/01/29 05:41:52;;;;;;;27.33;8.63;;;;;;;;;;5090525;28;20020;-80
2023/01/29 05:44:17;;;;;;;19.73;7.87;;;;;;;;;;5089523;28;20020;-80
2023/01/29 05:46:43;;;;;;;20.07;7.77;;;;;;;;;;5089674;28;20021;-80
2023/01/29 05:49:09;;;;;;;24.53;8.73;;;;;;;;;;5090942;28;20031;-80
2023/01/29 05:51:34;;;;;;;22.47;8.90;;;;;;;;;;5083339;28;20451;-80
2023/01/29 05:53:59;;;;;;;24.37;9.13;;;;;;;;;;5090879;28;20038;-80
2023/01/29 05:56:24;;;;;;;18.37;7.47;;;;;;;;;;5091226;28;20082;-80
2023/01/29 05:58:49;;;;;;;21.73;8.10;;;;;;;;;;5092216;28;20035;-80
2023/01/29 06:01:16;;;;;;;24.57;8.53;;;;;;;;;;5082336;28;20054;-80
2023/01/29 06:03:42;;;;;;;19.37;7.40;;;;;;;;;;5087499;28;20042;-80
2023/01/29 06:06:07;;;;;;;21.30;7.77;;;;;;;;;;5090999;28;20198;-80
2023/01/29 06:08:32;;;;;;;26.80;8.93;;;;;;;;;;5090858;28;20020;-80
2023/01/29 06:10:58;;;;;;;24.50;8.43;;;;;;;;;;5084555;28;20050;-80
2023/01/29 06:13:23;;;;;;;20.00;8.47;;;;;;;;;;5083420;28;20034;-80
2023/01/29 06:15:48;;;;;;;23.53;8.60;;;;;;;;;;5090259;28;20027;-80
2023/01/29 06:18:13;;;;;;;17.73;7.50;;;;;;;;;;5090388;28;20111;-80
2023/01/29 06:20:38;;;;;;;24.77;8.33;;;;;;;;;;5090581;28;20097;-80
2023/01/29 06:23:04;;;;;;;24.30;8.77;;;;;;;;;;5088748;28;20067;-80
2023/01/29 06:25:29;;;;;;;18.57;7.37;;;;;;;;;;5090406;28;20020;-80
2023/01/29 06:27:54;;;;;;;20.90;8.60;;;;;;;;;;5090485;28;20134;-80
2023/01/29 06:30:19;;;;;;;22.20;8.17;;;;;;;;;;5090385;28;20049;-80
2023/01/29 06:32:44;;;;;;;25.70;8.60;;;;;;;;;;5092148;28;20015;-80
2023/01/29 06:35:10;;;;;;;22.93;7.57;;;;;;;;;;5064941;28;20317;-80
2023/01/29 06:37:35;;;;;;;18.30;6.83;;;;;;;;;;5089253;28;20398;-80
2023/01/29 06:40:00;;;;;;;23.83;9.37;;;;;;;;;;5089787;28;20031;-80
2023/01/29 06:42:26;;;;;;;19.87;7.90;;;;;;;;;;5090249;28;20030;-80
2023/01/29 06:44:52;;;;;;;25.20;8.20;;;;;;;;;;5087849;28;20115;-80
2023/01/29 06:47:18;;;;;;;26.27;9.50;;;;;;;;;;5079757;28;20574;-80
2023/01/29 06:49:43;;;;;;;25.50;8.70;;;;;;;;;;5089924;28;20111;-80
2023/01/29 06:52:08;;;;;;;23.20;7.63;;;;;;;;;;5090452;28;20020;-80
2023/01/29 06:54:34;;;;;;;21.47;7.50;;;;;;;;;;5089995;28;20044;-80
2023/01/29 06:56:59;;;;;;;21.07;6.80;;;;;;;;;;5090000;28;20031;-80
2023/01/29 06:59:24;;;;;;;24.37;7.93;;;;;;;;;;5077281;28;20024;-80
2023/01/29 07:01:49;;;;;;;20.60;7.77;;;;;;;;;;5089901;28;20076;-80
2023/01/29 07:04:14;;;;;;;23.50;8.17;;;;;;;;;;5091240;28;20012;-80
2023/01/29 07:06:40;;;;;;;16.00;7.00;;;;;;;;;;5091545;28;20035;-80
2023/01/29 07:09:05;;;;;;;22.80;7.77;;;;;;;;;;5090024;28;20023;-80
2023/01/29 07:11:30;;;;;;;23.83;8.30;;;;;;;;;;5081884;28;20399;-80
2023/01/29 07:13:56;;;;;;;20.80;8.33;;;;;;;;;;5090130;28;20031;-80
2023/01/29 07:16:22;;;;;;;22.23;7.97;;;;;;;;;;5091441;28;20046;-80
2023/01/29 07:18:47;;;;;;;22.83;6.83;;;;;;;;;;5090864;28;20032;-80
2023/01/29 07:21:12;;;;;;;20.83;8.60;;;;;;;;;;5089593;28;20085;-80
2023/01/29 07:23:38;;;;;;;22.40;7.17;;;;;;;;;;5083470;28;20092;-80
2023/01/29 07:26:04;;;;;;;24.87;7.40;;;;;;;;;;5089796;28;20020;-81
2023/01/29 07:28:29;;;;;;;21.53;8.63;;;;;;;;;;5090756;28;20087;-80
2023/01/29 07:30:55;;;;;;;22.30;7.10;;;;;;;;;;5089665;28;20446;-80
2023/01/29 07:33:21;;;;;;;18.90;7.23;;;;;;;;;;5089696;28;20451;-80
2023/01/29 07:35:46;;;;;;;20.33;7.83;;;;;;;;;;5084156;28;20024;-80
2023/01/29 07:38:11;;;;;;;24.37;7.40;;;;;;;;;;5091248;28;20047;-81
2023/01/29 07:40:36;;;;;;;18.17;6.13;;;;;;;;;;5090867;28;20070;-80
2023/01/29 07:43:03;;;;;;;23.43;7.37;;;;;;;;;;5090934;28;20340;-80
2023/01/29 07:45:29;;;;;;;20.53;7.30;;;;;;;;;;5085426;28;20058;-80
2023/01/29 07:47:54;;;;;;;18.77;7.47;;;;;;;;;;5083418;28;20070;-80
2023/01/29 07:50:20;;;;;;;16.80;6.87;;;;;;;;;;5093275;28;20118;-80
2023/01/29 07:52:45;;;;;;;27.53;7.97;;;;;;;;;;5093615;28;20031;-80
2023/01/29 07:55:11;;;;;;;24.90;7.60;;;;;;;;;;5093063;28;20106;-81
2023/01/29 07:57:36;;;;;;;21.77;6.97;;;;;;;;;;5090261;28;20083;-80
2023/01/29 08:00:01;;;;;;;20.13;6.93;;;;;;;;;;5087296;28;20518;-80
2023/01/29 08:02:26;;;;;;;17.43;7.13;;;;;;;;;;5093292;28;20020;-80
2023/01/29 08:04:51;;;;;;;20.03;7.00;;;;;;;;;;5094636;28;20016;-80
2023/01/29 08:07:17;;;;;;;18.57;6.90;;;;;;;;;;5093325;28;20060;-80
2023/01/29 08:09:42;;;;;;;21.87;7.03;;;;;;;;;;5089692;28;20441;-81
2023/01/29 08:12:07;;;;;;;21.50;7.13;;;;;;;;;;5088844;28;20057;-81
2023/01/29 08:14:32;;;;;;;20.10;6.73;;;;;;;;;;5094342;28;20008;-81
2023/01/29 08:16:57;;;;;;;21.53;7.43;;;;;;;;;;5093300;28;20103;-81
2023/01/29 08:19:23;;;;;;;23.70;7.47;;;;;;;;;;5093812;28;20020;-81
2023/01/29 08:21:48;;;;;;;15.67;6.03;;;;;;;;;;5088777;28;20143;-81
2023/01/29 08:24:13;;;;;;;18.97;7.17;;;;;;;;;;5086440;28;20028;-81
2023/01/29 08:26:38;;;;;;;17.60;6.67;;;;;;;;;;5094335;28;20023;-79
2023/01/29 08:29:03;;;;;;;19.70;6.37;;;;;;;;;;5092384;28;20020;-80
2023/01/29 08:31:29;;;;;;;17.37;6.03;;;;;;;;;;5069788;28;20031;-79
2023/01/29 08:33:54;;;;;;;20.00;7.10;;;;;;;;;;5083166;28;20024;-80
2023/01/29 08:36:20;;;;;;;15.33;5.43;;;;;;;;;;5084614;28;20042;-79
2023/01/29 08:38:45;;;;;;;15.60;6.00;;;;;;;;;;5080690;28;20528;-79
2023/01/29 08:41:10;;;;;;;20.03;6.67;;;;;;;;;;5077531;28;20028;-80
2023/01/29 08:43:35;;;;;;;25.40;7.50;;;;;;;;;;5081934;28;20467;-79
2023/01/29 08:46:02;;;;;;;20.53;7.20;;;;;;;;;;5066889;28;20024;-78
2023/01/29 08:48:29;;;;;;;17.63;6.20;;;;;;;;;;5068261;28;20016;-79
2023/01/29 08:50:56;;;;;;;17.80;6.30;;;;;;;;;;5069399;28;20020;-79
2023/01/29 08:53:23;;;;;;;25.40;7.83;;;;;;;;;;5067894;28;20561;-81
2023/01/29 08:55:48;;;;;;;24.03;7.50;;;;;;;;;;5079441;28;20134;-79
2023/01/29 08:58:14;;;;;;;19.57;7.53;;;;;;;;;;5077381;28;20733;-79
2023/01/29 09:00:39;;;;;;;18.80;6.57;;;;;;;;;;5070817;28;20025;-79
2023/01/29 09:03:06;;;;;;;19.80;6.80;;;;;;;;;;5070046;28;20033;-76
2023/01/29 09:05:31;;;;;;;23.00;8.30;;;;;;;;;;5074681;28;20024;-80
2023/01/29 09:07:57;;;;;;;18.90;7.23;;;;;;;;;;5081582;28;20046;-80
2023/01/29 09:10:22;;;;;;;22.50;7.60;;;;;;;;;;5086389;28;20024;-79
2023/01/29 09:12:47;;;;;;;23.63;7.33;;;;;;;;;;5091820;28;20115;-80
2023/01/29 09:15:13;;;;;;;19.57;7.27;;;;;;;;;;5076028;28;20120;-79
2023/01/29 09:17:38;;;;;;;21.90;7.50;;;;;;;;;;5071990;28;20062;-79
2023/01/29 09:20:05;;;;;;;18.50;6.37;;;;;;;;;;5064092;28;20606;-79
2023/01/29 09:22:30;;;;;;;19.67;7.90;;;;;;;;;;5067668;28;20415;-79
2023/01/29 09:24:55;;;;;;;17.60;6.97;;;;;;;;;;5074187;28;20031;-79
2023/01/29 09:27:23;;;;;;;21.80;6.80;;;;;;;;;;5067959;28;20035;-79
2023/01/29 09:29:48;;;;;;;20.20;7.20;;;;;;;;;;5066623;28;20119;-79
2023/01/29 09:32:14;;;;;;;18.23;6.93;;;;;;;;;;5071707;28;20096;-80
2023/01/29 09:34:39;;;;;;;20.17;8.07;;;;;;;;;;5073928;28;20186;-80
2023/01/29 09:37:05;;;;;;;20.90;8.07;;;;;;;;;;5091514;28;20463;-80
2023/01/29 09:39:30;;;;;;;21.27;7.47;;;;;;;;;;5074987;28;20429;-80
2023/01/29 09:42:05;;;;;;;21.20;7.63;;;;;;;;;;5072152;28;20016;-80
2023/01/29 09:44:49;;;;;;;28.50;8.40;;;;;;;;;;5066437;28;20065;-80
2023/01/29 09:47:16;;;;;;;18.70;7.00;;;;;;;;;;5073491;28;20421;-81
2023/01/29 09:49:51;;;;;;;19.27;7.90;;;;;;;;;;5078237;28;20021;-80
2023/01/29 09:52:19;;;;;;;22.53;7.47;;;;;;;;;;5075529;28;20024;-80
2023/01/29 09:54:49;;;;;;;22.40;7.77;;;;;;;;;;5077433;28;20020;-79
2023/01/29 09:57:19;;;;;;;22.67;8.60;;;;;;;;;;5071318;28;20027;-79
2023/01/29 09:59:44;;;;;;;22.83;7.57;;;;;;;;;;5068940;28;20025;-80
2023/01/29 10:02:21;;;;;;;19.43;7.00;;;;;;;;;;5082619;28;20023;-81
2023/01/29 10:05:16;;;;;;;20.93;7.20;;;;;;;;;;5076584;28;20839;-80
2023/01/29 10:08:00;;;;;;;21.53;7.97;;;;;;;;;;5085562;27;20810;-80
2023/01/29 10:10:33;;;;;;;23.20;7.83;;;;;;;;;;5074826;28;20024;-79
2023/01/29 10:13:05;;;;;;;21.83;7.87;;;;;;;;;;5071065;28;20428;-80
2023/01/29 10:15:39;;;;;;;26.30;7.32;;;;;;;;;;5064459;28;20465;-79
2023/01/29 10:18:14;;;;;;;21.47;7.80;;;;;;;;;;5073547;28;20035;-80
2023/01/29 10:20:39;;;;;;;22.93;8.20;;;;;;;;;;5083150;28;20070;-79
2023/01/29 10:23:15;;;;;;;24.43;8.87;;;;;;;;;;5083204;28;20464;-79
2023/01/29 10:25:41;;;;;;;23.90;8.67;;;;;;;;;;5080422;28;20028;-80
2023/01/29 10:28:18;;;;;;;27.80;9.33;;;;;;;;;;5077528;28;20024;-80
2023/01/29 10:30:46;;;;;;;26.70;8.73;;;;;;;;;;5075177;28;20107;-80
2023/01/29 10:33:16;;;;;;;19.03;7.67;;;;;;;;;;5082523;28;20383;-80
2023/01/29 10:35:42;;;;;;;20.03;7.63;;;;;;;;;;5085047;28;20032;-80
2023/01/29 10:38:19;;;;;;;20.47;7.53;;;;;;;;;;5069740;28;20498;-80
2023/01/29 10:40:49;;;;;;;22.57;8.47;;;;;;;;;;5069398;28;20138;-80
2023/01/29 10:43:53;;;;;;;25.93;8.17;;;;;;;;;;5068475;28;20027;-79
2023/01/29 10:46:18;;;;;;;20.17;7.20;;;;;;;;;;5005480;28;20083;-80
2023/01/29 10:48:49;;;;;;;21.47;7.33;;;;;;;;;;4990850;28;20409;-80
2023/01/29 10:51:33;;;;;;;24.50;8.57;;;;;;;;;;5034147;28;20041;-80
2023/01/29 10:54:27;;;;;;;19.63;7.57;;;;;;;;;;5080237;28;20032;-80
2023/01/29 10:57:25;;;;;;;19.53;7.83;;;;;;;;;;5081880;28;20400;-81
2023/01/29 10:59:50;;;;;;;23.87;8.20;;;;;;;;;;5053451;28;20045;-80
2023/01/29 11:02:17;;;;;;;27.43;9.03;;;;;;;;;;5079220;28;20572;-80
2023/01/29 11:04:43;;;;;;;20.93;8.00;;;;;;;;;;5082356;28;20020;-80
2023/01/29 11:07:08;;;;;;;20.20;7.60;;;;;;;;;;5091107;28;20464;-80
2023/01/29 11:09:46;;;;;;;20.53;8.20;;;;;;;;;;5089548;28;20717;-80
2023/01/29 11:12:16;;;;;;;25.73;8.17;;;;;;;;;;5081884;28;20038;-80
2023/01/29 11:14:52;;;;;;;24.70;7.53;;;;;;;;;;5089662;28;20073;-80
2023/01/29 11:17:19;;;;;;;23.67;8.50;;;;;;;;;;5091252;28;20016;-80
2023/01/29 11:19:45;;;;;;;24.43;9.00;;;;;;;;;;5089411;28;20396;-80
2023/01/29 11:22:12;;;;;;;22.17;8.30;;;;;;;;;;5083584;28;20055;-80
2023/01/29 11:24:37;;;;;;;22.23;7.77;;;;;;;;;;5093588;28;20062;-80
2023/01/29 11:27:12;;;;;;;19.43;7.77;;;;;;;;;;5093701;28;20020;-80
2023/01/29 11:29:42;;;;;;;22.20;7.73;;;;;;;;;;5093585;28;20356;-80
2023/01/29 11:32:23;;;;;;;18.83;7.03;;;;;;;;;;5091821;28;20165;-80
2023/01/29 11:35:02;;;;;;;23.80;8.27;;;;;;;;;;5090270;28;20012;-80
2023/01/29 11:37:35;;;;;;;20.13;7.07;;;;;;;;;;5093781;28;20039;-80
2023/01/29 11:40:01;;;;;;;23.30;8.03;;;;;;;;;;5091453;28;20016;-80
2023/01/29 11:42:29;;;;;;;24.23;8.83;;;;;;;;;;5095072;28;20016;-80
2023/01/29 11:44:54;;;;;;;23.63;7.87;;;;;;;;;;5088086;28;20021;-80
2023/01/29 11:47:27;;;;;;;17.10;7.13;;;;;;;;;;5093693;28;20487;-80
2023/01/29 11:49:54;;;;;;;17.93;7.13;;;;;;;;;;5078936;28;20025;-80
2023/01/29 11:52:20;;;;;;;23.20;9.23;;;;;;;;;;5093484;28;20012;-80
2023/01/29 11:54:51;;;;;;;25.37;9.17;;;;;;;;;;5093350;28;20098;-80
2023/01/29 11:57:23;;;;;;;26.93;8.87;;;;;;;;;;5091997;28;20027;-79
2023/01/29 11:59:49;;;;;;;22.23;7.22;;;;;;;;;;5094103;28;20105;-80
2023/01/29 12:02:17;;;;;;;19.77;7.27;;;;;;;;;;5094253;28;20027;-80
2023/01/29 12:04:43;;;;;;;26.17;8.83;;;;;;;;;;5094432;28;20177;-80
2023/01/29 12:07:15;;;;;;;17.33;7.50;;;;;;;;;;5093051;28;20107;-80
2023/01/29 12:09:47;;;;;;;20.60;7.73;;;;;;;;;;5085343;28;20027;-80
2023/01/29 12:12:36;;;;;;;21.15;8.88;;;;;;;;;;5090135;28;20016;-80
2023/01/29 12:15:15;;;;;;;22.53;8.50;;;;;;;;;;5092356;28;20036;-80
2023/01/29 12:17:42;;;;;;;18.83;7.43;;;;;;;;;;5090015;28;20016;-80
2023/01/29 12:20:13;;;;;;;24.77;9.60;;;;;;;;;;5073677;28;20068;-80
2023/01/29 12:22:42;;;;;;;27.53;7.87;;;;;;;;;;5071429;28;20467;-79
2023/01/29 12:25:22;;;;;;;22.40;8.20;;;;;;;;;;5077685;28;20273;-80
2023/01/29 12:27:59;;;;;;;25.53;9.27;;;;;;;;;;5076114;28;20021;-79
2023/01/29 12:30:27;;;;;;;23.43;9.33;;;;;;;;;;5082810;28;20097;-80
2023/01/29 12:33:13;;;;;;;31.10;9.97;;;;;;;;;;5071194;28;20467;-80
2023/01/29 12:35:48;;;;;;;26.50;11.37;;;;;;;;;;5069119;28;20043;-80
2023/01/29 12:38:17;;;;;;;26.00;9.80;;;;;;;;;;5085818;28;20052;-80
2023/01/29 12:40:45;;;;;;;25.47;11.43;;;;;;;;;;5070791;28;20028;-80
2023/01/29 12:43:34;;;;;;;19.87;6.63;;;;;;;;;;5066420;28;20031;-80
2023/01/29 12:46:00;;;;;;;20.10;7.70;;;;;;;;;;5072374;28;20032;-80
2023/01/29 12:48:36;;;;;;;20.33;7.67;;;;;;;;;;5074537;28;20691;-80
2023/01/29 12:51:07;;;;;;;19.87;7.17;;;;;;;;;;5076400;28;20387;-79
2023/01/29 12:53:43;;;;;;;18.67;7.67;;;;;;;;;;5085135;28;20480;-79
2023/01/29 12:56:10;;;;;;;23.73;9.40;;;;;;;;;;5084114;28;20489;-79
2023/01/29 12:58:47;;;;;;;21.57;8.03;;;;;;;;;;5076711;28;20043;-78
2023/01/29 13:01:27;;;;;;;23.60;8.57;;;;;;;;;;5078923;28;20027;-79
2023/01/29 13:03:54;;;;;;;20.23;7.77;;;;;;;;;;5078289;28;20190;-79
2023/01/29 13:06:22;;;;;;;22.47;8.50;;;;;;;;;;5073401;28;20017;-80
2023/01/29 13:08:52;;;;;;;24.10;8.90;;;;;;;;;;5071837;28;20039;-80
2023/01/29 13:11:26;;;;;;;22.83;7.93;;;;;;;;;;5080065;28;20363;-79
2023/01/29 13:13:54;;;;;;;25.07;8.90;;;;;;;;;;5077721;28;20016;-79
2023/01/29 13:16:24;;;;;;;24.20;9.97;;;;;;;;;;5078475;28;20043;-80
2023/01/29 13:19:13;;;;;;;21.37;7.83;;;;;;;;;;5082061;28;20021;-79
2023/01/29 13:21:40;;;;;;;22.90;8.90;;;;;;;;;;5069476;28;20155;-79
2023/01/29 13:24:11;;;;;;;22.60;8.63;;;;;;;;;;5080914;28;20039;-78
2023/01/29 13:26:36;;;;;;;23.10;8.70;;;;;;;;;;5072366;28;20027;-83
2023/01/29 13:29:04;;;;;;;27.90;9.37;;;;;;;;;;5078282;28;20111;-79
2023/01/29 13:31:30;;;;;;;26.90;10.73;;;;;;;;;;5074536;28;20020;-79
2023/01/29 13:34:02;;;;;;;20.77;8.93;;;;;;;;;;5081947;28;20027;-79
2023/01/29 13:36:29;;;;;;;22.73;7.68;;;;;;;;;;5065626;28;20036;-79
2023/01/29 13:38:59;;;;;;;31.50;10.63;;;;;;;;;;5068458;28;20416;-78
2023/01/29 13:41:32;;;;;;;22.50;8.90;;;;;;;;;;5067949;28;20366;-79
2023/01/29 13:43:57;;;;;;;27.73;8.73;;;;;;;;;;5068789;28;20107;-79
2023/01/29 13:46:22;;;;;;;23.90;9.43;;;;;;;;;;5070973;28;20107;-79
2023/01/29 13:48:49;;;;;;;26.37;9.80;;;;;;;;;;5079308;28;20017;-79
2023/01/29 13:51:19;;;;;;;23.40;7.70;;;;;;;;;;5076536;28;20024;-78
2023/01/29 13:54:04;;;;;;;19.47;7.30;;;;;;;;;;5089504;28;20106;-79
2023/01/29 13:56:41;;;;;;;29.80;8.47;;;;;;;;;;5077332;28;20398;-79
2023/01/29 13:59:19;;;;;;;19.47;7.33;;;;;;;;;;5097814;28;20013;-79
2023/01/29 14:01:47;;;;;;;17.27;7.20;;;;;;;;;;5074122;28;20121;-79
2023/01/29 14:04:21;;;;;;;18.67;6.53;;;;;;;;;;5077877;28;20044;-79
2023/01/29 14:06:48;;;;;;;21.17;7.47;;;;;;;;;;5075962;28;20028;-79
2023/01/29 14:09:51;;;;;;;19.43;7.43;;;;;;;;;;5090475;28;20103;-78
2023/01/29 14:12:20;;;;;;;18.97;7.47;;;;;;;;;;5081913;28;20028;-79
2023/01/29 14:14:48;;;;;;;18.00;6.30;;;;;;;;;;5068603;28;20035;-79
2023/01/29 14:17:14;;;;;;;16.20;6.43;;;;;;;;;;5086769;28;20478;-79
2023/01/29 14:19:45;;;;;;;22.33;8.40;;;;;;;;;;5075104;28;20062;-79
2023/01/29 14:22:18;;;;;;;19.67;6.90;;;;;;;;;;5068385;28;20361;-81
2023/01/29 14:24:43;;;;;;;15.97;5.80;;;;;;;;;;5070917;28;20038;-81
2023/01/29 14:27:15;;;;;;;17.73;6.90;;;;;;;;;;5070389;28;20114;-81
2023/01/29 14:29:41;;;;;;;17.80;6.80;;;;;;;;;;5082264;28;20032;-81
2023/01/29 14:32:06;;;;;;;19.67;7.67;;;;;;;;;;5071253;28;20455;-81
2023/01/29 14:34:46;;;;;;;15.97;7.00;;;;;;;;;;5068504;28;20052;-81
2023/01/29 14:37:14;;;;;;;19.63;7.00;;;;;;;;;;5078029;28;20021;-81
2023/01/29 14:39:43;;;;;;;17.57;7.03;;;;;;;;;;5085708;28;20435;-81
2023/01/29 14:42:15;;;;;;;19.53;8.73;;;;;;;;;;5090114;28;20451;-81
2023/01/29 14:44:44;;;;;;;23.02;8.20;;;;;;;;;;5078722;28;20020;-80
2023/01/29 14:47:19;;;;;;;19.83;7.30;;;;;;;;;;5082656;28;20031;-80
2023/01/29 14:49:52;;;;;;;18.93;6.30;;;;;;;;;;5080250;28;20012;-81
2023/01/29 14:52:19;;;;;;;18.07;8.17;;;;;;;;;;5077237;28;20017;-81
2023/01/29 14:54:46;;;;;;;20.27;6.60;;;;;;;;;;5070398;28;20027;-81
2023/01/29 14:57:13;;;;;;;13.53;6.20;;;;;;;;;;5087434;28;20085;-81
2023/01/29 14:59:48;;;;;;;23.67;7.40;;;;;;;;;;5064141;28;20070;-81
2023/01/29 15:02:17;;;;;;;17.63;6.27;;;;;;;;;;5088498;28;20055;-81
2023/01/29 15:04:46;;;;;;;19.63;5.90;;;;;;;;;;5074177;28;20366;-81